sensor_id;sensor_type;location;lat;lon;timestamp;temperature;humidity
68051;DHT22;54839;51.364;7.246;2022-11-04T00:01:49;9.80;99.90
68051;DHT22;54839;51.364;7.246;2022-11-04T00:04:17;9.80;99.90
68051;DHT22;54839;51.364;7.246;2022-11-04T00:06:43;9.80;99.90
68051;DHT22;54839;51.364;7.246;2022-11-04T00:09:14;9.80;99.90
68051;DHT22;54839;51.364;7.246;2022-11-04T00:11:40;9.90;99.90
68051;DHT22;54839;51.364;7.246;2022-11-04T00:14:24;9.90;99.90
68051;DHT22;54839;51.364;7.246;2022-11-04T00:16:52;9.90;99.90
68051;DHT22;54839;51.364;7.246;2022-11-04T00:19:36;9.90;99.90
68051;DHT22;54839;51.364;7.246;2022-11-04T00:22:20;10.00;99.90
68051;DHT22;54839;51.364;7.246;2022-11-04T00:25:04;10.00;99.90
68051;DHT22;54839;51.364;7.246;2022-11-04T00:27:48;9.90;99.90
68051;DHT22;54839;51.364;7.246;2022-11-04T00:30:32;9.80;99.90
68051;DHT22;54839;51.364;7.246;2022-11-04T00:32:58;9.80;99.90
68051;DHT22;54839;51.364;7.246;2022-11-04T00:35:49;9.70;99.90
68051;DHT22;54839;51.364;7.246;2022-11-04T00:38:16;9.70;99.90
68051;DHT22;54839;51.364;7.246;2022-11-04T00:40:41;9.70;99.90
68051;DHT22;54839;51.364;7.246;2022-11-04T00:43:07;9.60;99.90
68051;DHT22;54839;51.364;7.246;2022-11-04T00:45:32;9.60;99.90
68051;DHT22;54839;51.364;7.246;2022-11-04T00:47:58;9.50;99.90
68051;DHT22;54839;51.364;7.246;2022-11-04T00:50:23;9.40;99.90
68051;DHT22;54839;51.364;7.246;2022-11-04T00:52:49;9.50;99.90
68051;DHT22;54839;51.364;7.246;2022-11-04T00:55:14;9.50;99.90
68051;DHT22;54839;51.364;7.246;2022-11-04T00:57:40;9.50;99.90
68051;DHT22;54839;51.364;7.246;2022-11-04T01:00:06;9.50;99.90
68051;DHT22;54839;51.364;7.246;2022-11-04T01:02:31;9.60;99.90
68051;DHT22;54839;51.364;7.246;2022-11-04T01:04:57;9.60;99.90
68051;DHT22;54839;51.364;7.246;2022-11-04T01:07:22;9.70;99.90
68051;DHT22;54839;51.364;7.246;2022-11-04T01:09:48;9.70;99.90
68051;DHT22;54839;51.364;7.246;2022-11-04T01:12:14;9.70;99.90
68051;DHT22;54839;51.364;7.246;2022-11-04T01:14:41;9.70;99.90
68051;DHT22;54839;51.364;7.246;2022-11-04T01:17:07;9.70;99.90
68051;DHT22;54839;51.364;7.246;2022-11-04T01:19:32;9.60;99.90
68051;DHT22;54839;51.364;7.246;2022-11-04T01:21:58;9.70;99.90
68051;DHT22;54839;51.364;7.246;2022-11-04T01:24:23;9.70;99.90
68051;DHT22;54839;51.364;7.246;2022-11-04T01:26:49;9.70;99.90
68051;DHT22;54839;51.364;7.246;2022-11-04T01:29:14;9.70;99.90
68051;DHT22;54839;51.364;7.246;2022-11-04T01:31:40;9.70;99.90
68051;DHT22;54839;51.364;7.246;2022-11-04T01:34:06;9.80;99.90
68051;DHT22;54839;51.364;7.246;2022-11-04T01:36:31;9.80;99.90
68051;DHT22;54839;51.364;7.246;2022-11-04T01:38:57;9.60;99.90
68051;DHT22;54839;51.364;7.246;2022-11-04T01:41:28;9.70;99.90
68051;DHT22;54839;51.364;7.246;2022-11-04T01:43:59;9.80;99.90
68051;DHT22;54839;51.364;7.246;2022-11-04T01:46:44;9.80;99.90
68051;DHT22;54839;51.364;7.246;2022-11-04T01:49:32;9.70;99.90
68051;DHT22;54839;51.364;7.246;2022-11-04T01:52:04;9.60;99.90
68051;DHT22;54839;51.364;7.246;2022-11-04T01:54:31;9.70;99.90
68051;DHT22;54839;51.364;7.246;2022-11-04T01:57:00;9.70;99.90
68051;DHT22;54839;51.364;7.246;2022-11-04T01:59:29;9.70;99.90
68051;DHT22;54839;51.364;7.246;2022-11-04T02:01:57;9.70;99.90
68051;DHT22;54839;51.364;7.246;2022-11-04T02:04:23;9.60;99.90
68051;DHT22;54839;51.364;7.246;2022-11-04T02:06:53;9.60;99.90
68051;DHT22;54839;51.364;7.246;2022-11-04T02:09:20;9.60;99.90
68051;DHT22;54839;51.364;7.246;2022-11-04T02:11:47;9.50;99.90
68051;DHT22;54839;51.364;7.246;2022-11-04T02:14:31;9.40;99.90
68051;DHT22;54839;51.364;7.246;2022-11-04T02:25:45;9.40;99.90
68051;DHT22;54839;51.364;7.246;2022-11-04T02:34:42;9.10;99.90
68051;DHT22;54839;51.364;7.246;2022-11-04T02:37:21;9.20;99.90
68051;DHT22;54839;51.364;7.246;2022-11-04T02:40:31;9.10;99.90
68051;DHT22;54839;51.364;7.246;2022-11-04T02:43:02;9.20;99.90
68051;DHT22;54839;51.364;7.246;2022-11-04T02:45:38;9.30;99.90
68051;DHT22;54839;51.364;7.246;2022-11-04T02:48:15;9.20;99.90
68051;DHT22;54839;51.364;7.246;2022-11-04T02:50:48;9.30;99.90
68051;DHT22;54839;51.364;7.246;2022-11-04T02:53:21;9.40;99.90
68051;DHT22;54839;51.364;7.246;2022-11-04T02:55:54;9.40;99.90
68051;DHT22;54839;51.364;7.246;2022-11-04T02:58:34;9.40;99.90
68051;DHT22;54839;51.364;7.246;2022-11-04T03:01:02;9.50;99.90
68051;DHT22;54839;51.364;7.246;2022-11-04T03:03:36;9.50;99.90
68051;DHT22;54839;51.364;7.246;2022-11-04T03:06:04;9.50;99.90
68051;DHT22;54839;51.364;7.246;2022-11-04T03:08:34;9.40;99.90
68051;DHT22;54839;51.364;7.246;2022-11-04T03:11:06;9.30;99.90
68051;DHT22;54839;51.364;7.246;2022-11-04T03:13:41;9.10;99.90
68051;DHT22;54839;51.364;7.246;2022-11-04T03:16:12;9.20;99.90
68051;DHT22;54839;51.364;7.246;2022-11-04T03:21:13;8.90;99.90
68051;DHT22;54839;51.364;7.246;2022-11-04T03:23:40;8.90;99.90
68051;DHT22;54839;51.364;7.246;2022-11-04T03:26:17;8.90;99.90
68051;DHT22;54839;51.364;7.246;2022-11-04T03:28:54;8.80;99.90
68051;DHT22;54839;51.364;7.246;2022-11-04T03:31:51;8.80;99.90
68051;DHT22;54839;51.364;7.246;2022-11-04T03:34:20;8.70;99.90
68051;DHT22;54839;51.364;7.246;2022-11-04T03:36:46;8.60;99.90
68051;DHT22;54839;51.364;7.246;2022-11-04T03:39:12;8.70;99.90
68051;DHT22;54839;51.364;7.246;2022-11-04T03:41:53;8.70;99.90
68051;DHT22;54839;51.364;7.246;2022-11-04T03:44:19;8.60;99.90
68051;DHT22;54839;51.364;7.246;2022-11-04T03:46:45;8.50;99.90
68051;DHT22;54839;51.364;7.246;2022-11-04T03:49:11;8.60;99.90
68051;DHT22;54839;51.364;7.246;2022-11-04T03:51:38;8.60;99.90
68051;DHT22;54839;51.364;7.246;2022-11-04T03:54:04;8.50;99.90
68051;DHT22;54839;51.364;7.246;2022-11-04T04:02:32;8.50;99.90
68051;DHT22;54839;51.364;7.246;2022-11-04T04:05:04;8.40;99.90
68051;DHT22;54839;51.364;7.246;2022-11-04T04:07:39;8.30;99.90
68051;DHT22;54839;51.364;7.246;2022-11-04T04:10:12;8.40;99.90
68051;DHT22;54839;51.364;7.246;2022-11-04T04:13:01;8.30;99.90
68051;DHT22;54839;51.364;7.246;2022-11-04T04:15:34;8.30;99.90
68051;DHT22;54839;51.364;7.246;2022-11-04T04:18:09;8.30;99.90
68051;DHT22;54839;51.364;7.246;2022-11-04T04:20:37;8.30;99.90
68051;DHT22;54839;51.364;7.246;2022-11-04T04:23:07;8.30;99.90
68051;DHT22;54839;51.364;7.246;2022-11-04T04:25:55;8.30;99.90
68051;DHT22;54839;51.364;7.246;2022-11-04T04:28:41;8.30;99.90
68051;DHT22;54839;51.364;7.246;2022-11-04T04:31:08;8.40;99.90
68051;DHT22;54839;51.364;7.246;2022-11-04T04:33:35;8.30;99.90
68051;DHT22;54839;51.364;7.246;2022-11-04T04:36:03;8.30;99.90
68051;DHT22;54839;51.364;7.246;2022-11-04T04:38:31;8.30;99.90
68051;DHT22;54839;51.364;7.246;2022-11-04T04:41:19;8.30;99.90
68051;DHT22;54839;51.364;7.246;2022-11-04T04:44:11;8.30;99.90
68051;DHT22;54839;51.364;7.246;2022-11-04T04:47:18;8.20;99.90
68051;DHT22;54839;51.364;7.246;2022-11-04T04:49:56;8.10;99.90
68051;DHT22;54839;51.364;7.246;2022-11-04T04:52:24;8.10;99.90
68051;DHT22;54839;51.364;7.246;2022-11-04T04:54:50;8.20;99.90
68051;DHT22;54839;51.364;7.246;2022-11-04T04:57:16;8.00;99.90
68051;DHT22;54839;51.364;7.246;2022-11-04T04:59:41;8.10;99.90
68051;DHT22;54839;51.364;7.246;2022-11-04T05:02:07;8.20;99.90
68051;DHT22;54839;51.364;7.246;2022-11-04T05:04:32;8.00;99.90
68051;DHT22;54839;51.364;7.246;2022-11-04T05:06:58;7.90;99.90
68051;DHT22;54839;51.364;7.246;2022-11-04T05:09:23;7.80;99.90
68051;DHT22;54839;51.364;7.246;2022-11-04T05:11:49;7.90;99.90
68051;DHT22;54839;51.364;7.246;2022-11-04T05:14:14;7.90;99.90
68051;DHT22;54839;51.364;7.246;2022-11-04T05:16:40;7.90;99.90
68051;DHT22;54839;51.364;7.246;2022-11-04T05:19:05;7.90;99.90
68051;DHT22;54839;51.364;7.246;2022-11-04T05:21:31;7.90;99.90
68051;DHT22;54839;51.364;7.246;2022-11-04T05:23:57;8.00;99.90
68051;DHT22;54839;51.364;7.246;2022-11-04T05:26:22;8.20;99.90
68051;DHT22;54839;51.364;7.246;2022-11-04T05:28:48;8.20;99.90
68051;DHT22;54839;51.364;7.246;2022-11-04T05:31:13;8.20;99.90
68051;DHT22;54839;51.364;7.246;2022-11-04T05:33:39;8.30;99.90
68051;DHT22;54839;51.364;7.246;2022-11-04T05:36:08;8.30;99.90
68051;DHT22;54839;51.364;7.246;2022-11-04T05:38:34;8.40;99.90
68051;DHT22;54839;51.364;7.246;2022-11-04T05:41:00;8.50;99.90
68051;DHT22;54839;51.364;7.246;2022-11-04T05:43:25;8.40;99.90
68051;DHT22;54839;51.364;7.246;2022-11-04T05:45:51;8.40;99.90
68051;DHT22;54839;51.364;7.246;2022-11-04T05:48:17;8.30;99.90
68051;DHT22;54839;51.364;7.246;2022-11-04T05:50:42;8.30;99.90
68051;DHT22;54839;51.364;7.246;2022-11-04T05:53:08;8.30;99.90
68051;DHT22;54839;51.364;7.246;2022-11-04T05:55:33;8.20;99.90
68051;DHT22;54839;51.364;7.246;2022-11-04T05:57:59;8.20;99.90
68051;DHT22;54839;51.364;7.246;2022-11-04T06:00:25;8.10;99.90
68051;DHT22;54839;51.364;7.246;2022-11-04T06:02:51;8.10;99.90
68051;DHT22;54839;51.364;7.246;2022-11-04T06:05:17;8.10;99.90
68051;DHT22;54839;51.364;7.246;2022-11-04T06:07:43;8.20;99.90
68051;DHT22;54839;51.364;7.246;2022-11-04T06:10:09;8.10;99.90
68051;DHT22;54839;51.364;7.246;2022-11-04T06:12:35;8.00;99.90
68051;DHT22;54839;51.364;7.246;2022-11-04T06:15:00;8.10;99.90
68051;DHT22;54839;51.364;7.246;2022-11-04T06:17:26;8.00;99.90
68051;DHT22;54839;51.364;7.246;2022-11-04T06:19:51;8.00;99.90
68051;DHT22;54839;51.364;7.246;2022-11-04T06:22:18;7.90;99.90
68051;DHT22;54839;51.364;7.246;2022-11-04T06:24:44;7.90;99.90
68051;DHT22;54839;51.364;7.246;2022-11-04T06:27:11;7.90;99.90
68051;DHT22;54839;51.364;7.246;2022-11-04T06:29:37;7.90;99.90
68051;DHT22;54839;51.364;7.246;2022-11-04T06:32:13;7.80;99.90
68051;DHT22;54839;51.364;7.246;2022-11-04T06:34:39;7.90;99.90
68051;DHT22;54839;51.364;7.246;2022-11-04T06:37:05;7.90;99.90
68051;DHT22;54839;51.364;7.246;2022-11-04T06:39:30;7.90;99.90
68051;DHT22;54839;51.364;7.246;2022-11-04T06:41:56;8.00;99.90
68051;DHT22;54839;51.364;7.246;2022-11-04T06:44:21;8.00;99.90
68051;DHT22;54839;51.364;7.246;2022-11-04T06:46:48;8.00;99.90
68051;DHT22;54839;51.364;7.246;2022-11-04T06:49:15;8.00;99.90
68051;DHT22;54839;51.364;7.246;2022-11-04T06:51:42;8.00;99.90
68051;DHT22;54839;51.364;7.246;2022-11-04T06:54:08;7.90;99.90
68051;DHT22;54839;51.364;7.246;2022-11-04T06:56:34;7.90;99.90
68051;DHT22;54839;51.364;7.246;2022-11-04T06:59:00;7.90;99.90
68051;DHT22;54839;51.364;7.246;2022-11-04T07:01:28;8.00;99.90
68051;DHT22;54839;51.364;7.246;2022-11-04T07:03:58;8.00;99.90
68051;DHT22;54839;51.364;7.246;2022-11-04T07:06:24;7.90;99.90
68051;DHT22;54839;51.364;7.246;2022-11-04T07:08:51;7.80;99.90
68051;DHT22;54839;51.364;7.246;2022-11-04T07:11:20;7.80;99.90
68051;DHT22;54839;51.364;7.246;2022-11-04T07:13:47;7.80;99.90
68051;DHT22;54839;51.364;7.246;2022-11-04T07:16:14;7.80;99.90
68051;DHT22;54839;51.364;7.246;2022-11-04T07:18:40;7.80;99.90
68051;DHT22;54839;51.364;7.246;2022-11-04T07:21:05;7.90;99.90
68051;DHT22;54839;51.364;7.246;2022-11-04T07:23:31;8.10;99.90
68051;DHT22;54839;51.364;7.246;2022-11-04T07:26:01;8.20;99.90
68051;DHT22;54839;51.364;7.246;2022-11-04T07:28:27;8.30;99.90
68051;DHT22;54839;51.364;7.246;2022-11-04T07:30:58;8.50;99.90
68051;DHT22;54839;51.364;7.246;2022-11-04T07:33:25;8.50;99.90
68051;DHT22;54839;51.364;7.246;2022-11-04T07:35:52;8.60;99.90
68051;DHT22;54839;51.364;7.246;2022-11-04T07:38:19;8.60;99.90
68051;DHT22;54839;51.364;7.246;2022-11-04T07:40:44;8.80;99.90
68051;DHT22;54839;51.364;7.246;2022-11-04T07:43:10;8.90;99.90
68051;DHT22;54839;51.364;7.246;2022-11-04T07:45:36;9.00;99.90
68051;DHT22;54839;51.364;7.246;2022-11-04T07:48:01;8.90;99.90
68051;DHT22;54839;51.364;7.246;2022-11-04T07:50:27;9.10;99.90
68051;DHT22;54839;51.364;7.246;2022-11-04T07:52:53;9.20;99.90
68051;DHT22;54839;51.364;7.246;2022-11-04T07:55:19;9.20;99.90
68051;DHT22;54839;51.364;7.246;2022-11-04T07:57:45;9.20;99.90
68051;DHT22;54839;51.364;7.246;2022-11-04T08:00:12;9.40;99.90
68051;DHT22;54839;51.364;7.246;2022-11-04T08:02:44;9.50;99.90
68051;DHT22;54839;51.364;7.246;2022-11-04T08:05:11;9.50;99.90
68051;DHT22;54839;51.364;7.246;2022-11-04T08:07:37;9.50;99.90
68051;DHT22;54839;51.364;7.246;2022-11-04T08:10:03;9.60;99.90
68051;DHT22;54839;51.364;7.246;2022-11-04T08:12:29;9.60;99.90
68051;DHT22;54839;51.364;7.246;2022-11-04T08:14:56;9.80;99.90
68051;DHT22;54839;51.364;7.246;2022-11-04T08:17:22;9.90;99.90
68051;DHT22;54839;51.364;7.246;2022-11-04T08:19:48;9.90;99.90
68051;DHT22;54839;51.364;7.246;2022-11-04T08:22:13;9.90;99.90
68051;DHT22;54839;51.364;7.246;2022-11-04T08:24:39;10.00;99.90
68051;DHT22;54839;51.364;7.246;2022-11-04T08:27:05;10.10;99.90
68051;DHT22;54839;51.364;7.246;2022-11-04T08:29:33;10.10;99.90
68051;DHT22;54839;51.364;7.246;2022-11-04T08:31:58;10.20;99.90
68051;DHT22;54839;51.364;7.246;2022-11-04T08:34:24;10.30;99.90
68051;DHT22;54839;51.364;7.246;2022-11-04T08:36:50;10.40;99.90
68051;DHT22;54839;51.364;7.246;2022-11-04T08:39:18;10.50;99.90
68051;DHT22;54839;51.364;7.246;2022-11-04T08:41:44;10.70;99.90
68051;DHT22;54839;51.364;7.246;2022-11-04T08:44:13;10.80;99.90
68051;DHT22;54839;51.364;7.246;2022-11-04T08:46:41;10.70;99.90
68051;DHT22;54839;51.364;7.246;2022-11-04T08:49:07;10.80;99.90
68051;DHT22;54839;51.364;7.246;2022-11-04T08:51:34;10.80;99.90
68051;DHT22;54839;51.364;7.246;2022-11-04T08:54:00;10.70;99.90
68051;DHT22;54839;51.364;7.246;2022-11-04T08:56:30;10.90;99.90
68051;DHT22;54839;51.364;7.246;2022-11-04T08:58:58;11.00;99.90
68051;DHT22;54839;51.364;7.246;2022-11-04T09:01:25;11.30;99.90
68051;DHT22;54839;51.364;7.246;2022-11-04T09:03:51;11.10;99.90
68051;DHT22;54839;51.364;7.246;2022-11-04T09:06:21;11.00;99.90
68051;DHT22;54839;51.364;7.246;2022-11-04T09:08:47;11.00;99.90
68051;DHT22;54839;51.364;7.246;2022-11-04T09:11:14;10.80;99.90
68051;DHT22;54839;51.364;7.246;2022-11-04T09:13:41;10.60;99.90
68051;DHT22;54839;51.364;7.246;2022-11-04T09:16:08;10.50;99.90
68051;DHT22;54839;51.364;7.246;2022-11-04T09:18:34;10.40;99.90
68051;DHT22;54839;51.364;7.246;2022-11-04T09:21:00;10.40;99.90
68051;DHT22;54839;51.364;7.246;2022-11-04T09:23:27;10.50;99.90
68051;DHT22;54839;51.364;7.246;2022-11-04T09:25:53;10.50;99.90
68051;DHT22;54839;51.364;7.246;2022-11-04T09:28:20;10.70;99.90
68051;DHT22;54839;51.364;7.246;2022-11-04T09:30:46;11.00;99.90
68051;DHT22;54839;51.364;7.246;2022-11-04T09:33:11;11.00;99.90
68051;DHT22;54839;51.364;7.246;2022-11-04T09:35:37;11.10;99.90
68051;DHT22;54839;51.364;7.246;2022-11-04T09:38:02;11.10;99.90
68051;DHT22;54839;51.364;7.246;2022-11-04T09:40:28;11.30;99.90
68051;DHT22;54839;51.364;7.246;2022-11-04T09:45:31;11.60;99.90
68051;DHT22;54839;51.364;7.246;2022-11-04T09:48:02;11.70;99.90
68051;DHT22;54839;51.364;7.246;2022-11-04T09:50:34;11.60;99.90
68051;DHT22;54839;51.364;7.246;2022-11-04T09:53:26;11.80;99.90
68051;DHT22;54839;51.364;7.246;2022-11-04T09:56:02;11.70;99.90
68051;DHT22;54839;51.364;7.246;2022-11-04T09:58:33;11.30;99.90
68051;DHT22;54839;51.364;7.246;2022-11-04T10:01:18;11.40;99.90
68051;DHT22;54839;51.364;7.246;2022-11-04T10:04:06;11.60;99.90
68051;DHT22;54839;51.364;7.246;2022-11-04T10:07:07;11.80;99.90
68051;DHT22;54839;51.364;7.246;2022-11-04T10:10:05;12.00;99.90
68051;DHT22;54839;51.364;7.246;2022-11-04T10:12:58;12.00;99.90
68051;DHT22;54839;51.364;7.246;2022-11-04T10:16:46;11.80;99.90
68051;DHT22;54839;51.364;7.246;2022-11-04T10:29:14;11.90;99.90
68051;DHT22;54839;51.364;7.246;2022-11-04T10:31:42;12.20;99.90
68051;DHT22;54839;51.364;7.246;2022-11-04T10:34:36;12.80;99.90
68051;DHT22;54839;51.364;7.246;2022-11-04T10:37:03;12.40;99.90
68051;DHT22;54839;51.364;7.246;2022-11-04T10:39:31;12.10;99.90
68051;DHT22;54839;51.364;7.246;2022-11-04T10:41:59;12.30;99.90
68051;DHT22;54839;51.364;7.246;2022-11-04T10:44:27;12.10;99.90
68051;DHT22;54839;51.364;7.246;2022-11-04T10:50:20;12.30;99.90
68051;DHT22;54839;51.364;7.246;2022-11-04T10:52:38;12.30;99.90
68051;DHT22;54839;51.364;7.246;2022-11-04T10:55:32;12.20;99.90
68051;DHT22;54839;51.364;7.246;2022-11-04T10:58:00;12.00;99.90
68051;DHT22;54839;51.364;7.246;2022-11-04T11:00:37;12.00;99.90
68051;DHT22;54839;51.364;7.246;2022-11-04T11:03:25;12.10;99.90
68051;DHT22;54839;51.364;7.246;2022-11-04T11:08:34;12.20;99.90
68051;DHT22;54839;51.364;7.246;2022-11-04T11:11:03;12.40;99.90
68051;DHT22;54839;51.364;7.246;2022-11-04T11:13:38;12.50;99.90
68051;DHT22;54839;51.364;7.246;2022-11-04T11:16:07;12.50;99.90
68051;DHT22;54839;51.364;7.246;2022-11-04T11:18:33;12.80;99.90
68051;DHT22;54839;51.364;7.246;2022-11-04T11:21:14;13.30;99.90
68051;DHT22;54839;51.364;7.246;2022-11-04T11:23:46;13.40;99.90
68051;DHT22;54839;51.364;7.246;2022-11-04T11:26:19;13.30;99.90
68051;DHT22;54839;51.364;7.246;2022-11-04T11:28:54;13.20;99.90
68051;DHT22;54839;51.364;7.246;2022-11-04T11:31:34;13.00;99.90
68051;DHT22;54839;51.364;7.246;2022-11-04T11:34:06;13.20;99.90
68051;DHT22;54839;51.364;7.246;2022-11-04T11:36:38;13.10;99.90
68051;DHT22;54839;51.364;7.246;2022-11-04T11:39:05;13.20;99.90
68051;DHT22;54839;51.364;7.246;2022-11-04T11:42:05;13.30;99.90
68051;DHT22;54839;51.364;7.246;2022-11-04T11:44:32;13.40;99.90
68051;DHT22;54839;51.364;7.246;2022-11-04T11:47:04;13.20;99.90
68051;DHT22;54839;51.364;7.246;2022-11-04T11:49:33;13.10;99.90
68051;DHT22;54839;51.364;7.246;2022-11-04T11:54:49;13.30;99.90
68051;DHT22;54839;51.364;7.246;2022-11-04T12:00:16;13.40;99.90
68051;DHT22;54839;51.364;7.246;2022-11-04T12:05:19;13.10;99.90
68051;DHT22;54839;51.364;7.246;2022-11-04T12:08:06;12.90;99.90
68051;DHT22;54839;51.364;7.246;2022-11-04T12:10:48;12.90;99.90
68051;DHT22;54839;51.364;7.246;2022-11-04T12:13:25;12.60;99.90
68051;DHT22;54839;51.364;7.246;2022-11-04T12:18:41;12.30;99.90
68051;DHT22;54839;51.364;7.246;2022-11-04T12:32:35;12.60;99.90
68051;DHT22;54839;51.364;7.246;2022-11-04T12:35:40;12.90;99.90
68051;DHT22;54839;51.364;7.246;2022-11-04T12:44:07;13.40;99.90
68051;DHT22;54839;51.364;7.246;2022-11-04T12:46:56;13.50;99.90
68051;DHT22;54839;51.364;7.246;2022-11-04T13:01:02;13.30;99.90
68051;DHT22;54839;51.364;7.246;2022-11-04T13:03:39;13.40;99.90
68051;DHT22;54839;51.364;7.246;2022-11-04T13:06:14;13.50;99.90
68051;DHT22;54839;51.364;7.246;2022-11-04T13:08:57;13.50;99.90
68051;DHT22;54839;51.364;7.246;2022-11-04T13:11:32;13.70;99.90
68051;DHT22;54839;51.364;7.246;2022-11-04T13:14:05;13.90;99.90
68051;DHT22;54839;51.364;7.246;2022-11-04T13:16:37;14.30;99.90
68051;DHT22;54839;51.364;7.246;2022-11-04T13:21:48;14.70;99.90
68051;DHT22;54839;51.364;7.246;2022-11-04T13:24:27;14.60;99.90
68051;DHT22;54839;51.364;7.246;2022-11-04T13:26:59;15.90;99.90
68051;DHT22;54839;51.364;7.246;2022-11-04T13:29:27;17.60;99.90
68051;DHT22;54839;51.364;7.246;2022-11-04T13:32:32;19.00;99.90
68051;DHT22;54839;51.364;7.246;2022-11-04T13:35:02;20.30;99.90
68051;DHT22;54839;51.364;7.246;2022-11-04T13:37:38;20.50;99.90
68051;DHT22;54839;51.364;7.246;2022-11-04T13:40:21;18.90;99.90
68051;DHT22;54839;51.364;7.246;2022-11-04T13:48:36;15.40;99.90
68051;DHT22;54839;51.364;7.246;2022-11-04T13:51:10;14.70;99.90
68051;DHT22;54839;51.364;7.246;2022-11-04T13:53:56;14.50;99.90
68051;DHT22;54839;51.364;7.246;2022-11-04T13:56:29;14.40;99.90
68051;DHT22;54839;51.364;7.246;2022-11-04T14:01:43;14.30;99.90
68051;DHT22;54839;51.364;7.246;2022-11-04T14:06:59;13.80;99.90
68051;DHT22;54839;51.364;7.246;2022-11-04T14:14:40;13.40;99.90
68051;DHT22;54839;51.364;7.246;2022-11-04T14:20:21;13.20;99.90
68051;DHT22;54839;51.364;7.246;2022-11-04T14:22:52;13.20;99.90
68051;DHT22;54839;51.364;7.246;2022-11-04T14:27:53;13.00;99.90
68051;DHT22;54839;51.364;7.246;2022-11-04T14:32:59;13.10;99.90
68051;DHT22;54839;51.364;7.246;2022-11-04T14:35:27;13.00;99.90
68051;DHT22;54839;51.364;7.246;2022-11-04T14:37:54;13.00;99.90
68051;DHT22;54839;51.364;7.246;2022-11-04T14:40:46;13.10;99.90
68051;DHT22;54839;51.364;7.246;2022-11-04T14:43:30;13.00;99.90
68051;DHT22;54839;51.364;7.246;2022-11-04T14:45:58;13.10;99.90
68051;DHT22;54839;51.364;7.246;2022-11-04T14:48:26;13.10;99.90
68051;DHT22;54839;51.364;7.246;2022-11-04T14:50:54;12.80;99.90
68051;DHT22;54839;51.364;7.246;2022-11-04T14:53:36;12.80;99.90
68051;DHT22;54839;51.364;7.246;2022-11-04T14:56:16;12.70;99.90
68051;DHT22;54839;51.364;7.246;2022-11-04T14:58:58;12.70;99.90
68051;DHT22;54839;51.364;7.246;2022-11-04T15:01:26;12.70;99.90
68051;DHT22;54839;51.364;7.246;2022-11-04T15:03:54;12.70;99.90
68051;DHT22;54839;51.364;7.246;2022-11-04T15:06:28;12.50;99.90
68051;DHT22;54839;51.364;7.246;2022-11-04T15:08:55;12.50;99.90
68051;DHT22;54839;51.364;7.246;2022-11-04T15:11:26;12.50;99.90
68051;DHT22;54839;51.364;7.246;2022-11-04T15:14:24;12.40;99.90
68051;DHT22;54839;51.364;7.246;2022-11-04T15:16:56;12.20;99.90
68051;DHT22;54839;51.364;7.246;2022-11-04T15:19:31;12.20;99.90
68051;DHT22;54839;51.364;7.246;2022-11-04T15:21:58;12.10;99.90
68051;DHT22;54839;51.364;7.246;2022-11-04T15:24:26;12.10;99.90
68051;DHT22;54839;51.364;7.246;2022-11-04T15:26:53;12.00;99.90
68051;DHT22;54839;51.364;7.246;2022-11-04T15:29:22;12.00;99.90
68051;DHT22;54839;51.364;7.246;2022-11-04T15:34:19;11.90;99.90
68051;DHT22;54839;51.364;7.246;2022-11-04T15:36:46;11.80;99.90
68051;DHT22;54839;51.364;7.246;2022-11-04T15:39:25;11.80;99.90
68051;DHT22;54839;51.364;7.246;2022-11-04T15:41:57;11.80;99.90
68051;DHT22;54839;51.364;7.246;2022-11-04T15:44:49;11.80;99.90
68051;DHT22;54839;51.364;7.246;2022-11-04T15:49:45;11.70;99.90
68051;DHT22;54839;51.364;7.246;2022-11-04T15:52:19;11.70;99.90
68051;DHT22;54839;51.364;7.246;2022-11-04T15:55:05;11.70;99.90
68051;DHT22;54839;51.364;7.246;2022-11-04T15:57:33;11.70;99.90
68051;DHT22;54839;51.364;7.246;2022-11-04T16:00:08;11.60;99.90
68051;DHT22;54839;51.364;7.246;2022-11-04T16:02:47;11.60;99.90
68051;DHT22;54839;51.364;7.246;2022-11-04T16:07:41;11.50;99.90
68051;DHT22;54839;51.364;7.246;2022-11-04T16:12:56;11.50;99.90
68051;DHT22;54839;51.364;7.246;2022-11-04T16:15:38;11.50;99.90
68051;DHT22;54839;51.364;7.246;2022-11-04T16:18:16;11.40;99.90
68051;DHT22;54839;51.364;7.246;2022-11-04T16:20:45;11.40;99.90
68051;DHT22;54839;51.364;7.246;2022-11-04T16:23:16;11.40;99.90
68051;DHT22;54839;51.364;7.246;2022-11-04T16:25:43;11.40;99.90
68051;DHT22;54839;51.364;7.246;2022-11-04T16:28:18;11.30;99.90
68051;DHT22;54839;51.364;7.246;2022-11-04T16:30:59;11.20;99.90
68051;DHT22;54839;51.364;7.246;2022-11-04T16:33:25;11.20;99.90
68051;DHT22;54839;51.364;7.246;2022-11-04T16:35:51;11.20;99.90
68051;DHT22;54839;51.364;7.246;2022-11-04T16:38:16;11.10;99.90
68051;DHT22;54839;51.364;7.246;2022-11-04T16:40:45;11.10;99.90
68051;DHT22;54839;51.364;7.246;2022-11-04T16:43:12;11.10;99.90
68051;DHT22;54839;51.364;7.246;2022-11-04T16:45:38;11.00;99.90
68051;DHT22;54839;51.364;7.246;2022-11-04T16:48:05;10.90;99.90
68051;DHT22;54839;51.364;7.246;2022-11-04T16:50:31;11.10;99.90
68051;DHT22;54839;51.364;7.246;2022-11-04T16:52:57;11.00;99.90
68051;DHT22;54839;51.364;7.246;2022-11-04T16:55:24;11.00;99.90
68051;DHT22;54839;51.364;7.246;2022-11-04T16:57:56;10.70;99.90
68051;DHT22;54839;51.364;7.246;2022-11-04T17:00:25;10.80;99.90
68051;DHT22;54839;51.364;7.246;2022-11-04T17:02:51;10.70;99.90
68051;DHT22;54839;51.364;7.246;2022-11-04T17:05:17;10.70;99.90
68051;DHT22;54839;51.364;7.246;2022-11-04T17:07:43;10.80;99.90
68051;DHT22;54839;51.364;7.246;2022-11-04T17:10:21;10.70;99.90
68051;DHT22;54839;51.364;7.246;2022-11-04T17:12:47;10.80;99.90
68051;DHT22;54839;51.364;7.246;2022-11-04T17:15:14;10.70;99.90
68051;DHT22;54839;51.364;7.246;2022-11-04T17:17:40;10.70;99.90
68051;DHT22;54839;51.364;7.246;2022-11-04T17:20:07;10.70;99.90
68051;DHT22;54839;51.364;7.246;2022-11-04T17:22:35;10.90;99.90
68051;DHT22;54839;51.364;7.246;2022-11-04T17:25:01;10.90;99.90
68051;DHT22;54839;51.364;7.246;2022-11-04T17:27:27;10.90;99.90
68051;DHT22;54839;51.364;7.246;2022-11-04T17:29:52;10.90;99.90
68051;DHT22;54839;51.364;7.246;2022-11-04T17:32:18;11.00;99.90
68051;DHT22;54839;51.364;7.246;2022-11-04T17:34:44;10.90;99.90
68051;DHT22;54839;51.364;7.246;2022-11-04T17:37:13;10.90;99.90
68051;DHT22;54839;51.364;7.246;2022-11-04T17:39:39;10.80;99.90
68051;DHT22;54839;51.364;7.246;2022-11-04T17:42:05;10.80;99.90
68051;DHT22;54839;51.364;7.246;2022-11-04T17:44:49;10.80;99.90
68051;DHT22;54839;51.364;7.246;2022-11-04T17:47:14;10.70;99.90
68051;DHT22;54839;51.364;7.246;2022-11-04T17:49:40;10.70;99.90
68051;DHT22;54839;51.364;7.246;2022-11-04T17:52:06;10.70;99.90
68051;DHT22;54839;51.364;7.246;2022-11-04T17:54:33;10.60;99.90
68051;DHT22;54839;51.364;7.246;2022-11-04T17:56:59;10.60;99.90
68051;DHT22;54839;51.364;7.246;2022-11-04T17:59:25;10.50;99.90
68051;DHT22;54839;51.364;7.246;2022-11-04T18:01:50;10.50;99.90